sensor_id;sensor_type;location;lat;lon;timestamp;pressure;altitude;pressure_sealevel;temperature;humidity
33151;BME280;19508;42.578;23.416;2024-03-29T00:01:08;93419.75;;;9.96;62.25
33151;BME280;19508;42.578;23.416;2024-03-29T00:03:33;93447.16;;;9.93;62.60
33151;BME280;19508;42.578;23.416;2024-03-29T00:05:58;93454.72;;;9.96;62.42
33151;BME280;19508;42.578;23.416;2024-03-29T00:08:24;93435.94;;;10.06;62.58
33151;BME280;19508;42.578;23.416;2024-03-29T00:10:49;93462.84;;;10.01;63.00
33151;BME280;19508;42.578;23.416;2024-03-29T00:13:15;93472.06;;;10.15;62.11
33151;BME280;19508;42.578;23.416;2024-03-29T00:15:40;93446.16;;;10.04;62.01
33151;BME280;19508;42.578;23.416;2024-03-29T00:18:06;93463.81;;;9.89;64.32
33151;BME280;19508;42.578;23.416;2024-03-29T00:20:31;93480.25;;;9.93;62.97
33151;BME280;19508;42.578;23.416;2024-03-29T00:22:57;93454.09;;;9.83;62.78
33151;BME280;19508;42.578;23.416;2024-03-29T00:25:22;93479.34;;;9.82;63.61
33151;BME280;19508;42.578;23.416;2024-03-29T00:27:48;93472.81;;;9.73;64.41
33151;BME280;19508;42.578;23.416;2024-03-29T00:30:14;93485.38;;;9.63;65.57
33151;BME280;19508;42.578;23.416;2024-03-29T00:32:41;93490.59;;;9.47;66.20
33151;BME280;19508;42.578;23.416;2024-03-29T00:35:07;93489.94;;;9.62;65.44
33151;BME280;19508;42.578;23.416;2024-03-29T00:37:33;93491.97;;;9.50;65.60
33151;BME280;19508;42.578;23.416;2024-03-29T00:39:58;93504.84;;;9.48;66.58
33151;BME280;19508;42.578;23.416;2024-03-29T00:42:24;93507.06;;;9.56;65.87
33151;BME280;19508;42.578;23.416;2024-03-29T00:44:50;93501.34;;;9.47;66.22
33151;BME280;19508;42.578;23.416;2024-03-29T00:47:15;93500.50;;;9.42;66.54
33151;BME280;19508;42.578;23.416;2024-03-29T00:49:40;93509.84;;;9.34;67.40
33151;BME280;19508;42.578;23.416;2024-03-29T00:52:06;93515.59;;;9.48;66.53
33151;BME280;19508;42.578;23.416;2024-03-29T00:54:32;93511.81;;;9.44;66.94
33151;BME280;19508;42.578;23.416;2024-03-29T00:56:57;93508.00;;;9.40;67.65
33151;BME280;19508;42.578;23.416;2024-03-29T00:59:23;93502.13;;;9.43;67.40
33151;BME280;19508;42.578;23.416;2024-03-29T01:01:49;93509.56;;;9.36;67.91
33151;BME280;19508;42.578;23.416;2024-03-29T01:04:15;93505.19;;;9.29;68.42
33151;BME280;19508;42.578;23.416;2024-03-29T01:06:41;93510.28;;;9.26;68.57
33151;BME280;19508;42.578;23.416;2024-03-29T01:09:06;93512.72;;;9.27;68.69
33151;BME280;19508;42.578;23.416;2024-03-29T01:11:32;93503.41;;;9.13;68.54
33151;BME280;19508;42.578;23.416;2024-03-29T01:13:57;93515.66;;;9.04;69.38
33151;BME280;19508;42.578;23.416;2024-03-29T01:16:23;93513.31;;;9.08;69.39
33151;BME280;19508;42.578;23.416;2024-03-29T01:18:49;93517.63;;;8.87;70.26
33151;BME280;19508;42.578;23.416;2024-03-29T01:21:14;93520.25;;;8.82;69.55
33151;BME280;19508;42.578;23.416;2024-03-29T01:23:40;93508.81;;;8.91;69.85
33151;BME280;19508;42.578;23.416;2024-03-29T01:26:06;93521.56;;;9.01;69.91
33151;BME280;19508;42.578;23.416;2024-03-29T01:28:32;93535.94;;;8.90;70.68
33151;BME280;19508;42.578;23.416;2024-03-29T01:30:57;93537.41;;;8.81;70.78
33151;BME280;19508;42.578;23.416;2024-03-29T01:33:25;93523.16;;;8.80;70.24
33151;BME280;19508;42.578;23.416;2024-03-29T01:35:51;93527.13;;;8.72;71.23
33151;BME280;19508;42.578;23.416;2024-03-29T01:38:16;93525.66;;;8.87;69.95
33151;BME280;19508;42.578;23.416;2024-03-29T01:40:42;93526.59;;;8.75;71.08
33151;BME280;19508;42.578;23.416;2024-03-29T01:43:08;93529.22;;;8.70;71.57
33151;BME280;19508;42.578;23.416;2024-03-29T01:45:38;93526.06;;;8.73;71.30
33151;BME280;19508;42.578;23.416;2024-03-29T01:48:10;93517.28;;;8.61;72.12
33151;BME280;19508;42.578;23.416;2024-03-29T01:50:36;93530.31;;;8.53;72.32
33151;BME280;19508;42.578;23.416;2024-03-29T01:53:03;93532.41;;;8.67;72.12
33151;BME280;19508;42.578;23.416;2024-03-29T01:55:29;93544.50;;;8.48;72.67
33151;BME280;19508;42.578;23.416;2024-03-29T01:57:56;93547.41;;;8.63;71.80
33151;BME280;19508;42.578;23.416;2024-03-29T02:00:22;93553.75;;;8.57;71.78
33151;BME280;19508;42.578;23.416;2024-03-29T02:02:48;93557.94;;;8.70;71.28
33151;BME280;19508;42.578;23.416;2024-03-29T02:05:14;93559.50;;;8.66;71.19
33151;BME280;19508;42.578;23.416;2024-03-29T02:07:39;93561.25;;;8.55;71.84
33151;BME280;19508;42.578;23.416;2024-03-29T02:10:10;93567.94;;;8.74;71.47
33151;BME280;19508;42.578;23.416;2024-03-29T02:12:38;93572.75;;;8.72;71.03
33151;BME280;19508;42.578;23.416;2024-03-29T02:15:04;93581.69;;;8.61;71.82
33151;BME280;19508;42.578;23.416;2024-03-29T02:17:31;93589.06;;;8.49;72.35
33151;BME280;19508;42.578;23.416;2024-03-29T02:19:57;93595.38;;;8.43;72.71
33151;BME280;19508;42.578;23.416;2024-03-29T02:22:23;93607.75;;;8.44;72.46
33151;BME280;19508;42.578;23.416;2024-03-29T02:24:49;93614.81;;;8.33;72.60
33151;BME280;19508;42.578;23.416;2024-03-29T02:27:16;93613.84;;;8.23;73.49
33151;BME280;19508;42.578;23.416;2024-03-29T02:29:41;93616.81;;;8.26;73.54
33151;BME280;19508;42.578;23.416;2024-03-29T02:32:07;93628.06;;;8.23;73.24
33151;BME280;19508;42.578;23.416;2024-03-29T02:34:32;93628.53;;;8.03;74.57
33151;BME280;19508;42.578;23.416;2024-03-29T02:36:58;93640.88;;;8.04;74.69
33151;BME280;19508;42.578;23.416;2024-03-29T02:39:24;93648.53;;;8.12;74.35
33151;BME280;19508;42.578;23.416;2024-03-29T02:41:49;93652.75;;;8.08;74.50
33151;BME280;19508;42.578;23.416;2024-03-29T02:44:15;93654.59;;;8.08;74.48
33151;BME280;19508;42.578;23.416;2024-03-29T02:46:43;93669.22;;;8.00;74.93
33151;BME280;19508;42.578;23.416;2024-03-29T02:49:09;93660.38;;;8.00;74.76
33151;BME280;19508;42.578;23.416;2024-03-29T02:51:35;93674.28;;;7.85;74.96
33151;BME280;19508;42.578;23.416;2024-03-29T02:54:00;93671.78;;;7.78;76.54
33151;BME280;19508;42.578;23.416;2024-03-29T02:56:25;93668.69;;;7.70;77.04
33151;BME280;19508;42.578;23.416;2024-03-29T02:58:52;93670.97;;;7.78;76.73
33151;BME280;19508;42.578;23.416;2024-03-29T03:01:17;93664.72;;;7.89;75.82
33151;BME280;19508;42.578;23.416;2024-03-29T03:03:43;93672.69;;;7.84;76.16
33151;BME280;19508;42.578;23.416;2024-03-29T03:06:08;93663.69;;;7.90;76.33
33151;BME280;19508;42.578;23.416;2024-03-29T03:08:34;93662.72;;;7.96;75.74
33151;BME280;19508;42.578;23.416;2024-03-29T03:11:18;93681.78;;;7.83;76.27
33151;BME280;19508;42.578;23.416;2024-03-29T03:13:43;93668.94;;;7.85;76.68
33151;BME280;19508;42.578;23.416;2024-03-29T03:16:08;93682.44;;;7.90;76.53
33151;BME280;19508;42.578;23.416;2024-03-29T03:18:34;93676.50;;;7.88;76.12
33151;BME280;19508;42.578;23.416;2024-03-29T03:20:59;93682.19;;;7.91;75.86
33151;BME280;19508;42.578;23.416;2024-03-29T03:23:25;93692.00;;;7.86;76.20
33151;BME280;19508;42.578;23.416;2024-03-29T03:25:58;93699.66;;;7.94;76.02
33151;BME280;19508;42.578;23.416;2024-03-29T03:28:23;93692.63;;;7.76;76.73
33151;BME280;19508;42.578;23.416;2024-03-29T03:30:50;93711.25;;;7.83;77.22
33151;BME280;19508;42.578;23.416;2024-03-29T03:33:15;93717.88;;;7.92;76.48
33151;BME280;19508;42.578;23.416;2024-03-29T03:35:42;93719.47;;;7.93;76.13
33151;BME280;19508;42.578;23.416;2024-03-29T03:38:07;93713.31;;;7.92;76.00
33151;BME280;19508;42.578;23.416;2024-03-29T03:40:34;93719.31;;;7.83;76.33
33151;BME280;19508;42.578;23.416;2024-03-29T03:43:00;93719.09;;;7.73;77.02
33151;BME280;19508;42.578;23.416;2024-03-29T03:45:25;93716.81;;;7.64;77.05
33151;BME280;19508;42.578;23.416;2024-03-29T03:47:51;93734.31;;;7.55;77.90
33151;BME280;19508;42.578;23.416;2024-03-29T03:50:16;93743.94;;;7.68;77.68
33151;BME280;19508;42.578;23.416;2024-03-29T03:52:42;93744.16;;;7.67;78.32
33151;BME280;19508;42.578;23.416;2024-03-29T03:55:07;93733.81;;;7.58;78.08
33151;BME280;19508;42.578;23.416;2024-03-29T03:57:33;93721.34;;;7.64;77.75
33151;BME280;19508;42.578;23.416;2024-03-29T03:59:59;93742.16;;;7.74;77.50
33151;BME280;19508;42.578;23.416;2024-03-29T04:02:25;93759.00;;;7.57;77.94
33151;BME280;19508;42.578;23.416;2024-03-29T04:04:50;93751.09;;;7.39;78.87
33151;BME280;19508;42.578;23.416;2024-03-29T04:07:16;93757.03;;;7.53;78.79
33151;BME280;19508;42.578;23.416;2024-03-29T04:09:41;93762.59;;;7.51;78.77
33151;BME280;19508;42.578;23.416;2024-03-29T04:12:07;93778.38;;;7.36;80.00
33151;BME280;19508;42.578;23.416;2024-03-29T04:14:32;93775.09;;;7.34;80.21
33151;BME280;19508;42.578;23.416;2024-03-29T04:16:57;93788.38;;;7.52;79.37
33151;BME280;19508;42.578;23.416;2024-03-29T04:19:23;93787.19;;;7.48;79.73
33151;BME280;19508;42.578;23.416;2024-03-29T04:21:48;93793.25;;;7.55;79.07
33151;BME280;19508;42.578;23.416;2024-03-29T04:24:14;93790.13;;;7.47;78.99
33151;BME280;19508;42.578;23.416;2024-03-29T04:26:39;93800.34;;;7.50;79.03
33151;BME280;19508;42.578;23.416;2024-03-29T04:29:05;93800.13;;;7.51;79.41
33151;BME280;19508;42.578;23.416;2024-03-29T04:31:30;93805.09;;;7.59;78.76
33151;BME280;19508;42.578;23.416;2024-03-29T04:33:56;93806.53;;;7.50;79.13
33151;BME280;19508;42.578;23.416;2024-03-29T04:36:21;93811.88;;;7.50;79.14
33151;BME280;19508;42.578;23.416;2024-03-29T04:38:47;93820.16;;;7.25;80.31
33151;BME280;19508;42.578;23.416;2024-03-29T04:41:13;93820.88;;;7.44;79.75
33151;BME280;19508;42.578;23.416;2024-03-29T04:43:40;93816.22;;;7.40;80.15
33151;BME280;19508;42.578;23.416;2024-03-29T04:46:10;93824.59;;;7.55;79.77
33151;BME280;19508;42.578;23.416;2024-03-29T04:48:40;93824.69;;;7.60;79.39
33151;BME280;19508;42.578;23.416;2024-03-29T04:51:07;93826.78;;;7.70;78.69
33151;BME280;19508;42.578;23.416;2024-03-29T04:53:32;93825.16;;;7.57;79.44
33151;BME280;19508;42.578;23.416;2024-03-29T04:55:58;93833.44;;;7.55;79.93
33151;BME280;19508;42.578;23.416;2024-03-29T04:58:27;93846.22;;;7.77;79.40
33151;BME280;19508;42.578;23.416;2024-03-29T05:00:53;93849.78;;;8.06;79.75
33151;BME280;19508;42.578;23.416;2024-03-29T05:03:20;93845.66;;;8.38;78.12
33151;BME280;19508;42.578;23.416;2024-03-29T05:05:47;93831.91;;;8.97;78.78
33151;BME280;19508;42.578;23.416;2024-03-29T05:08:12;93835.66;;;9.46;76.50
33151;BME280;19508;42.578;23.416;2024-03-29T05:10:39;93830.16;;;9.92;75.09
33151;BME280;19508;42.578;23.416;2024-03-29T05:13:04;93853.44;;;10.47;72.78
33151;BME280;19508;42.578;23.416;2024-03-29T05:15:30;93847.00;;;11.01;69.21
33151;BME280;19508;42.578;23.416;2024-03-29T05:17:56;93838.66;;;11.30;65.58
33151;BME280;19508;42.578;23.416;2024-03-29T05:20:21;93845.16;;;11.71;64.78
33151;BME280;19508;42.578;23.416;2024-03-29T05:22:47;93843.75;;;12.01;62.89
33151;BME280;19508;42.578;23.416;2024-03-29T05:25:12;93851.44;;;12.29;62.05
33151;BME280;19508;42.578;23.416;2024-03-29T05:27:38;93843.16;;;12.51;60.11
33151;BME280;19508;42.578;23.416;2024-03-29T05:30:04;93845.34;;;12.59;56.70
33151;BME280;19508;42.578;23.416;2024-03-29T05:32:30;93847.84;;;12.81;58.51
33151;BME280;19508;42.578;23.416;2024-03-29T05:34:56;93845.75;;;13.09;58.00
33151;BME280;19508;42.578;23.416;2024-03-29T05:37:22;93852.03;;;13.55;56.26
33151;BME280;19508;42.578;23.416;2024-03-29T05:39:50;93849.31;;;13.80;54.20
33151;BME280;19508;42.578;23.416;2024-03-29T05:42:24;93855.16;;;14.38;52.66
33151;BME280;19508;42.578;23.416;2024-03-29T05:44:49;93855.03;;;14.79;49.92
33151;BME280;19508;42.578;23.416;2024-03-29T05:47:15;93851.09;;;15.06;50.53
33151;BME280;19508;42.578;23.416;2024-03-29T05:49:40;93853.56;;;15.41;48.35
33151;BME280;19508;42.578;23.416;2024-03-29T05:52:06;93847.91;;;15.72;47.81
33151;BME280;19508;42.578;23.416;2024-03-29T05:54:31;93837.59;;;15.74;47.79
33151;BME280;19508;42.578;23.416;2024-03-29T05:56:56;93842.75;;;16.28;46.22
33151;BME280;19508;42.578;23.416;2024-03-29T05:59:22;93838.41;;;16.99;44.33
33151;BME280;19508;42.578;23.416;2024-03-29T06:01:47;93829.66;;;17.02;43.43
33151;BME280;19508;42.578;23.416;2024-03-29T06:04:13;93837.38;;;17.14;43.57
33151;BME280;19508;42.578;23.416;2024-03-29T06:06:44;93845.91;;;17.07;43.74
33151;BME280;19508;42.578;23.416;2024-03-29T06:09:10;93848.06;;;17.10;43.86
33151;BME280;19508;42.578;23.416;2024-03-29T06:11:35;93849.22;;;17.04;43.20
33151;BME280;19508;42.578;23.416;2024-03-29T06:14:00;93852.78;;;16.81;42.98
33151;BME280;19508;42.578;23.416;2024-03-29T06:16:28;93848.72;;;17.40;42.44
33151;BME280;19508;42.578;23.416;2024-03-29T06:19:12;93857.53;;;18.02;43.14
33151;BME280;19508;42.578;23.416;2024-03-29T06:21:38;93870.25;;;18.53;40.77
33151;BME280;19508;42.578;23.416;2024-03-29T06:24:11;93870.97;;;18.58;39.33
33151;BME280;19508;42.578;23.416;2024-03-29T06:26:41;93870.44;;;18.89;38.80
33151;BME280;19508;42.578;23.416;2024-03-29T06:29:09;93857.66;;;19.12;38.15
33151;BME280;19508;42.578;23.416;2024-03-29T06:31:35;93859.91;;;19.60;37.54
33151;BME280;19508;42.578;23.416;2024-03-29T06:34:03;93873.50;;;19.73;37.06
33151;BME280;19508;42.578;23.416;2024-03-29T06:36:28;93862.88;;;19.72;35.47
33151;BME280;19508;42.578;23.416;2024-03-29T06:38:55;93871.59;;;19.96;35.92
33151;BME280;19508;42.578;23.416;2024-03-29T06:41:21;93861.88;;;20.35;35.64
33151;BME280;19508;42.578;23.416;2024-03-29T06:43:46;93862.53;;;20.41;34.60
33151;BME280;19508;42.578;23.416;2024-03-29T06:46:12;93868.75;;;20.86;34.83
33151;BME280;19508;42.578;23.416;2024-03-29T06:48:38;93869.25;;;20.88;35.23
33151;BME280;19508;42.578;23.416;2024-03-29T06:51:03;93868.75;;;20.86;34.97
33151;BME280;19508;42.578;23.416;2024-03-29T06:53:29;93874.34;;;20.81;34.19
33151;BME280;19508;42.578;23.416;2024-03-29T06:55:55;93884.31;;;20.46;34.56
33151;BME280;19508;42.578;23.416;2024-03-29T06:58:23;93885.22;;;20.64;35.50
33151;BME280;19508;42.578;23.416;2024-03-29T07:00:49;93884.28;;;21.17;34.33
33151;BME280;19508;42.578;23.416;2024-03-29T07:03:18;93887.16;;;21.03;33.87
33151;BME280;19508;42.578;23.416;2024-03-29T07:05:45;93887.22;;;21.20;32.77
33151;BME280;19508;42.578;23.416;2024-03-29T07:08:10;93888.13;;;21.55;33.31
33151;BME280;19508;42.578;23.416;2024-03-29T07:10:36;93882.34;;;22.00;32.09
33151;BME280;19508;42.578;23.416;2024-03-29T07:13:02;93898.31;;;22.24;31.55
33151;BME280;19508;42.578;23.416;2024-03-29T07:15:27;93885.00;;;22.69;30.89
33151;BME280;19508;42.578;23.416;2024-03-29T07:17:53;93883.94;;;21.84;32.02
33151;BME280;19508;42.578;23.416;2024-03-29T07:20:18;93891.38;;;22.18;32.22
33151;BME280;19508;42.578;23.416;2024-03-29T07:22:44;93882.66;;;21.99;31.52
33151;BME280;19508;42.578;23.416;2024-03-29T07:25:11;93880.69;;;22.51;31.08
33151;BME280;19508;42.578;23.416;2024-03-29T07:27:36;93885.09;;;22.81;30.31
33151;BME280;19508;42.578;23.416;2024-03-29T07:30:05;93888.34;;;22.84;31.65
33151;BME280;19508;42.578;23.416;2024-03-29T07:32:33;93887.84;;;22.99;29.86
33151;BME280;19508;42.578;23.416;2024-03-29T07:34:58;93886.88;;;23.83;30.22
33151;BME280;19508;42.578;23.416;2024-03-29T07:37:24;93884.16;;;23.54;29.33
33151;BME280;19508;42.578;23.416;2024-03-29T07:39:50;93883.13;;;24.09;29.49
33151;BME280;19508;42.578;23.416;2024-03-29T07:42:16;93875.09;;;23.53;29.83
33151;BME280;19508;42.578;23.416;2024-03-29T07:44:42;93878.03;;;24.19;30.20
33151;BME280;19508;42.578;23.416;2024-03-29T07:47:07;93869.31;;;23.97;29.97
33151;BME280;19508;42.578;23.416;2024-03-29T07:49:32;93874.66;;;23.72;29.75
33151;BME280;19508;42.578;23.416;2024-03-29T07:51:58;93878.41;;;24.30;29.74
33151;BME280;19508;42.578;23.416;2024-03-29T07:54:24;93870.56;;;23.99;28.75
33151;BME280;19508;42.578;23.416;2024-03-29T07:56:50;93870.38;;;23.83;30.19
33151;BME280;19508;42.578;23.416;2024-03-29T07:59:15;93877.03;;;23.53;30.34
33151;BME280;19508;42.578;23.416;2024-03-29T08:01:44;93872.19;;;24.00;29.61
33151;BME280;19508;42.578;23.416;2024-03-29T08:04:10;93877.28;;;24.64;28.96
33151;BME280;19508;42.578;23.416;2024-03-29T08:06:35;93870.16;;;25.09;29.29
33151;BME280;19508;42.578;23.416;2024-03-29T08:09:00;93873.66;;;24.39;28.91
33151;BME280;19508;42.578;23.416;2024-03-29T08:11:26;93876.16;;;23.90;29.40
33151;BME280;19508;42.578;23.416;2024-03-29T08:13:51;93876.34;;;23.64;29.81
33151;BME280;19508;42.578;23.416;2024-03-29T08:16:17;93861.53;;;23.78;29.18
33151;BME280;19508;42.578;23.416;2024-03-29T08:18:45;93869.94;;;24.35;29.43
33151;BME280;19508;42.578;23.416;2024-03-29T08:21:10;93861.66;;;24.56;27.71
33151;BME280;19508;42.578;23.416;2024-03-29T08:23:40;93862.81;;;24.55;29.00
33151;BME280;19508;42.578;23.416;2024-03-29T08:26:05;93872.81;;;23.85;29.16
33151;BME280;19508;42.578;23.416;2024-03-29T08:28:31;93860.94;;;24.26;28.30
33151;BME280;19508;42.578;23.416;2024-03-29T08:31:05;93857.06;;;25.06;28.01
33151;BME280;19508;42.578;23.416;2024-03-29T08:33:31;93859.47;;;25.19;28.47
33151;BME280;19508;42.578;23.416;2024-03-29T08:35:57;93852.94;;;25.12;27.58
33151;BME280;19508;42.578;23.416;2024-03-29T08:38:23;93842.69;;;25.61;28.44
33151;BME280;19508;42.578;23.416;2024-03-29T08:40:49;93842.34;;;25.75;26.03
33151;BME280;19508;42.578;23.416;2024-03-29T08:43:15;93845.25;;;26.06;28.09
33151;BME280;19508;42.578;23.416;2024-03-29T08:45:44;93840.13;;;26.21;25.96
33151;BME280;19508;42.578;23.416;2024-03-29T08:48:10;93843.25;;;25.54;27.48
33151;BME280;19508;42.578;23.416;2024-03-29T08:50:36;93835.69;;;26.16;26.69
33151;BME280;19508;42.578;23.416;2024-03-29T08:53:05;93834.34;;;26.38;26.09
33151;BME280;19508;42.578;23.416;2024-03-29T08:55:31;93838.03;;;26.30;25.86
33151;BME280;19508;42.578;23.416;2024-03-29T08:57:57;93840.88;;;26.61;25.71
33151;BME280;19508;42.578;23.416;2024-03-29T09:00:24;93840.13;;;27.24;25.23
33151;BME280;19508;42.578;23.416;2024-03-29T09:02:49;93825.66;;;28.55;24.41
33151;BME280;19508;42.578;23.416;2024-03-29T09:05:15;93821.44;;;28.84;23.56
33151;BME280;19508;42.578;23.416;2024-03-29T09:07:40;93815.63;;;29.12;23.60
33151;BME280;19508;42.578;23.416;2024-03-29T09:10:07;93810.78;;;28.86;24.62
33151;BME280;19508;42.578;23.416;2024-03-29T09:12:32;93801.97;;;28.58;23.57
33151;BME280;19508;42.578;23.416;2024-03-29T09:14:58;93812.66;;;26.52;25.57
33151;BME280;19508;42.578;23.416;2024-03-29T09:17:23;93808.94;;;26.92;24.11
33151;BME280;19508;42.578;23.416;2024-03-29T09:19:50;93804.22;;;27.59;25.61
33151;BME280;19508;42.578;23.416;2024-03-29T09:22:17;93800.22;;;27.21;24.46
33151;BME280;19508;42.578;23.416;2024-03-29T09:24:42;93794.03;;;26.81;26.64
33151;BME280;19508;42.578;23.416;2024-03-29T09:27:08;93794.31;;;27.23;24.91
33151;BME280;19508;42.578;23.416;2024-03-29T09:29:33;93784.59;;;27.29;24.13
33151;BME280;19508;42.578;23.416;2024-03-29T09:31:59;93780.06;;;27.56;26.16
33151;BME280;19508;42.578;23.416;2024-03-29T09:34:27;93778.97;;;28.15;23.17
33151;BME280;19508;42.578;23.416;2024-03-29T09:36:53;93773.88;;;28.17;23.08
33151;BME280;19508;42.578;23.416;2024-03-29T09:39:18;93773.63;;;27.33;24.43
33151;BME280;19508;42.578;23.416;2024-03-29T09:41:45;93765.91;;;27.42;23.99
33151;BME280;19508;42.578;23.416;2024-03-29T09:44:11;93755.31;;;27.44;24.62
33151;BME280;19508;42.578;23.416;2024-03-29T09:46:37;93752.19;;;26.79;24.37
33151;BME280;19508;42.578;23.416;2024-03-29T09:49:06;93747.09;;;27.12;25.25
33151;BME280;19508;42.578;23.416;2024-03-29T09:51:35;93746.28;;;26.96;24.59
33151;BME280;19508;42.578;23.416;2024-03-29T09:54:03;93744.44;;;26.68;24.59
33151;BME280;19508;42.578;23.416;2024-03-29T09:56:29;93736.31;;;27.77;23.54
33151;BME280;19508;42.578;23.416;2024-03-29T09:58:55;93730.38;;;28.60;22.18
33151;BME280;19508;42.578;23.416;2024-03-29T10:01:21;93734.44;;;29.12;23.06
33151;BME280;19508;42.578;23.416;2024-03-29T10:03:49;93726.38;;;29.30;21.76
33151;BME280;19508;42.578;23.416;2024-03-29T10:06:17;93732.34;;;28.59;22.84
33151;BME280;19508;42.578;23.416;2024-03-29T10:08:45;93733.22;;;28.21;23.25
33151;BME280;19508;42.578;23.416;2024-03-29T10:11:11;93727.47;;;28.53;23.85
33151;BME280;19508;42.578;23.416;2024-03-29T10:13:37;93728.41;;;28.60;22.88
33151;BME280;19508;42.578;23.416;2024-03-29T10:16:03;93722.28;;;28.93;23.65
33151;BME280;19508;42.578;23.416;2024-03-29T10:18:29;93726.63;;;29.47;22.08
33151;BME280;19508;42.578;23.416;2024-03-29T10:21:07;93723.75;;;29.14;22.63
33151;BME280;19508;42.578;23.416;2024-03-29T10:23:34;93714.66;;;28.64;23.17
33151;BME280;19508;42.578;23.416;2024-03-29T10:26:01;93712.53;;;28.15;23.95
33151;BME280;19508;42.578;23.416;2024-03-29T10:28:34;93711.47;;;29.11;23.20
33151;BME280;19508;42.578;23.416;2024-03-29T10:31:04;93712.53;;;28.57;22.83
33151;BME280;19508;42.578;23.416;2024-03-29T10:33:33;93717.78;;;27.62;24.50
33151;BME280;19508;42.578;23.416;2024-03-29T10:35:59;93709.16;;;28.67;23.48
33151;BME280;19508;42.578;23.416;2024-03-29T10:38:26;93712.41;;;28.96;22.37
33151;BME280;19508;42.578;23.416;2024-03-29T10:40:52;93716.31;;;29.18;23.41
33151;BME280;19508;42.578;23.416;2024-03-29T10:43:19;93705.75;;;29.84;22.40
33151;BME280;19508;42.578;23.416;2024-03-29T10:45:46;93699.16;;;29.65;22.01
33151;BME280;19508;42.578;23.416;2024-03-29T10:48:14;93704.25;;;29.33;21.93
33151;BME280;19508;42.578;23.416;2024-03-29T10:50:41;93696.13;;;29.74;22.81
33151;BME280;19508;42.578;23.416;2024-03-29T10:53:08;93696.38;;;28.86;23.29
33151;BME280;19508;42.578;23.416;2024-03-29T10:55:34;93706.66;;;28.85;23.46
33151;BME280;19508;42.578;23.416;2024-03-29T10:58:01;93703.50;;;28.18;23.81
33151;BME280;19508;42.578;23.416;2024-03-29T11:00:29;93695.72;;;27.46;23.91
33151;BME280;19508;42.578;23.416;2024-03-29T11:03:12;93691.75;;;27.82;23.33
33151;BME280;19508;42.578;23.416;2024-03-29T11:05:42;93695.66;;;27.62;24.06
33151;BME280;19508;42.578;23.416;2024-03-29T11:08:09;93690.13;;;28.43;23.64
33151;BME280;19508;42.578;23.416;2024-03-29T11:10:43;93694.63;;;28.74;24.09
33151;BME280;19508;42.578;23.416;2024-03-29T11:16:14;93706.03;;;28.46;24.04
33151;BME280;19508;42.578;23.416;2024-03-29T11:18:44;93693.06;;;27.89;23.77
33151;BME280;19508;42.578;23.416;2024-03-29T11:21:10;93686.50;;;27.97;24.16
33151;BME280;19508;42.578;23.416;2024-03-29T11:23:37;93674.41;;;28.97;23.00
33151;BME280;19508;42.578;23.416;2024-03-29T11:26:02;93669.03;;;28.58;23.67
33151;BME280;19508;42.578;23.416;2024-03-29T11:28:33;93676.59;;;29.10;23.73
33151;BME280;19508;42.578;23.416;2024-03-29T11:31:03;93680.50;;;29.96;24.64
33151;BME280;19508;42.578;23.416;2024-03-29T11:33:34;93686.38;;;29.31;22.85
33151;BME280;19508;42.578;23.416;2024-03-29T11:36:21;93674.16;;;29.32;22.20
33151;BME280;19508;42.578;23.416;2024-03-29T11:38:50;93674.00;;;30.55;21.77
33151;BME280;19508;42.578;23.416;2024-03-29T11:41:20;93669.34;;;31.14;21.27
33151;BME280;19508;42.578;23.416;2024-03-29T11:43:50;93673.66;;;31.08;20.48
33151;BME280;19508;42.578;23.416;2024-03-29T11:46:16;93675.13;;;32.62;19.63
33151;BME280;19508;42.578;23.416;2024-03-29T11:48:41;93666.81;;;32.94;19.43
33151;BME280;19508;42.578;23.416;2024-03-29T11:51:10;93670.84;;;31.67;20.59
33151;BME280;19508;42.578;23.416;2024-03-29T11:53:36;93672.97;;;31.91;20.79
33151;BME280;19508;42.578;23.416;2024-03-29T11:56:03;93666.78;;;32.69;19.12
33151;BME280;19508;42.578;23.416;2024-03-29T11:58:30;93663.97;;;32.55;19.40
33151;BME280;19508;42.578;23.416;2024-03-29T12:00:57;93658.84;;;32.86;19.04
33151;BME280;19508;42.578;23.416;2024-03-29T12:03:28;93654.41;;;33.49;18.32
33151;BME280;19508;42.578;23.416;2024-03-29T12:05:56;93658.47;;;32.91;19.73
33151;BME280;19508;42.578;23.416;2024-03-29T12:08:28;93657.63;;;33.22;18.87
33151;BME280;19508;42.578;23.416;2024-03-29T12:10:53;93666.44;;;32.85;19.34
33151;BME280;19508;42.578;23.416;2024-03-29T12:13:19;93656.81;;;33.47;18.38
33151;BME280;19508;42.578;23.416;2024-03-29T12:15:44;93653.97;;;33.64;18.94
33151;BME280;19508;42.578;23.416;2024-03-29T12:18:10;93664.00;;;33.12;18.83
33151;BME280;19508;42.578;23.416;2024-03-29T12:20:40;93651.16;;;34.56;19.64
33151;BME280;19508;42.578;23.416;2024-03-29T12:23:07;93663.06;;;33.93;18.93
33151;BME280;19508;42.578;23.416;2024-03-29T12:25:35;93652.13;;;34.83;19.28
33151;BME280;19508;42.578;23.416;2024-03-29T12:28:02;93650.22;;;35.25;18.57
33151;BME280;19508;42.578;23.416;2024-03-29T12:30:28;93652.44;;;34.40;18.70
33151;BME280;19508;42.578;23.416;2024-03-29T12:33:12;93652.50;;;34.89;17.08
33151;BME280;19508;42.578;23.416;2024-03-29T12:35:42;93655.47;;;33.87;18.53
33151;BME280;19508;42.578;23.416;2024-03-29T12:38:11;93657.66;;;32.83;18.85
33151;BME280;19508;42.578;23.416;2024-03-29T12:40:37;93653.50;;;34.61;17.90
33151;BME280;19508;42.578;23.416;2024-03-29T12:43:06;93648.94;;;34.85;17.77
33151;BME280;19508;42.578;23.416;2024-03-29T12:45:34;93663.63;;;33.10;19.41
33151;BME280;19508;42.578;23.416;2024-03-29T12:47:59;93649.63;;;34.44;17.97
33151;BME280;19508;42.578;23.416;2024-03-29T12:50:29;93657.97;;;33.60;18.19
33151;BME280;19508;42.578;23.416;2024-03-29T12:52:57;93650.50;;;32.93;18.75
33151;BME280;19508;42.578;23.416;2024-03-29T12:55:23;93636.75;;;33.80;18.21